Time;durP1;ratioP1;P1;durP2;ratioP2;P2;SDS_P1;SDS_P2;PMS_P1;PMS_P2;Temp;Humidity;BMP_temperature;BMP_pressure;BME280_temperature;BME280_humidity;BME280_pressure;Samples;Min_cycle;Max_cycle;Signal;HPM_P1;HPM_P2
2021/04/09 00:02:10;;;;;;;1.70;1.20;;;20.50;40.90;;;;;;5003086;28;20411;-70
2021/04/09 00:04:37;;;;;;;2.60;1.10;;;20.50;40.90;;;;;;4985267;28;21436;-72
2021/04/09 00:07:04;;;;;;;2.60;1.30;;;20.50;40.90;;;;;;5008545;28;20964;-70
2021/04/09 00:09:30;;;;;;;1.70;1.60;;;20.50;40.90;;;;;;5012711;28;20481;-71
2021/04/09 00:11:57;;;;;;;1.27;1.17;;;20.50;40.70;;;;;;5006006;28;20427;-69
2021/04/09 00:14:23;;;;;;;1.50;1.30;;;20.50;40.70;;;;;;4993162;28;20423;-70
2021/04/09 00:16:49;;;;;;;1.30;1.20;;;20.50;40.80;;;;;;5012146;28;20487;-68
2021/04/09 00:19:16;;;;;;;1.60;1.00;;;20.50;40.70;;;;;;5009676;28;20421;-69
2021/04/09 00:21:42;;;;;;;2.00;1.30;;;20.50;41.00;;;;;;4997497;28;20410;-71
2021/04/09 00:24:10;;;;;;;1.13;1.13;;;20.50;40.90;;;;;;5020258;28;20424;-70
2021/04/09 00:26:36;;;;;;;1.40;1.30;;;20.50;40.70;;;;;;4995847;28;20432;-71
2021/04/09 00:29:02;;;;;;;1.70;1.60;;;20.50;40.90;;;;;;4989068;28;20424;-72
2021/04/09 00:31:28;;;;;;;1.63;1.52;;;20.50;40.90;;;;;;5002405;28;20448;-69
2021/04/09 00:33:54;;;;;;;2.55;1.25;;;20.50;40.90;;;;;;5005592;28;20955;-68
2021/04/09 00:36:21;;;;;;;1.65;1.23;;;20.50;41.20;;;;;;4994323;28;21073;-69
2021/04/09 00:38:47;;;;;;;1.70;1.57;;;20.50;41.20;;;;;;5007474;28;20459;-70
2021/04/09 00:41:14;;;;;;;2.40;1.20;;;20.50;41.30;;;;;;5003534;28;20435;-71
2021/04/09 00:43:40;;;;;;;1.50;1.40;;;20.50;41.20;;;;;;5013406;28;20447;-67
2021/04/09 00:46:07;;;;;;;1.45;1.35;;;20.50;41.30;;;;;;5006255;28;20426;-70
2021/04/09 00:48:33;;;;;;;1.40;1.25;;;20.50;41.00;;;;;;4996991;28;20442;-70
2021/04/09 00:50:59;;;;;;;1.60;1.55;;;20.60;41.10;;;;;;5004833;28;20407;-68
2021/04/09 00:53:26;;;;;;;1.20;1.10;;;20.60;41.00;;;;;;5006957;28;20423;-70
2021/04/09 00:55:52;;;;;;;1.50;1.40;;;20.60;40.80;;;;;;5008005;28;20419;-71
2021/04/09 00:58:19;;;;;;;1.50;1.40;;;20.60;40.90;;;;;;4989379;28;21015;-72
2021/04/09 01:00:45;;;;;;;1.17;1.10;;;20.50;40.60;;;;;;5011914;28;20421;-69
2021/04/09 01:03:11;;;;;;;2.37;1.50;;;20.50;40.80;;;;;;5009924;28;20411;-68
2021/04/09 01:05:37;;;;;;;1.50;1.20;;;20.50;40.80;;;;;;5004220;28;20432;-70
2021/04/09 01:08:05;;;;;;;2.53;1.20;;;20.50;40.90;;;;;;5006493;28;20941;-70
2021/04/09 01:10:32;;;;;;;1.67;1.30;;;20.50;40.80;;;;;;5006654;28;20402;-69
2021/04/09 01:12:58;;;;;;;2.15;1.60;;;20.50;41.00;;;;;;5011957;28;20492;-70
2021/04/09 01:15:25;;;;;;;2.40;1.40;;;20.50;40.80;;;;;;5005316;28;20426;-70
2021/04/09 01:17:55;;;;;;;1.50;1.30;;;20.40;40.90;;;;;;4999337;28;20526;-69
2021/04/09 01:20:37;;;;;;;1.45;1.27;;;20.40;40.80;;;;;;5005763;28;20409;-70
2021/04/09 01:23:22;;;;;;;1.60;1.50;;;20.40;40.80;;;;;;4998183;28;20443;-70
2021/04/09 01:26:17;;;;;;;1.30;1.20;;;20.40;40.80;;;;;;5010865;28;20411;-68
2021/04/09 01:28:51;;;;;;;1.40;1.30;;;20.40;40.90;;;;;;4996860;28;20436;-69
2021/04/09 01:31:41;;;;;;;1.40;1.20;;;20.40;41.00;;;;;;4998749;28;20471;-68
2021/04/09 01:34:08;;;;;;;2.60;1.50;;;20.40;40.90;;;;;;4989650;28;20414;-70
2021/04/09 01:36:38;;;;;;;1.80;1.40;;;20.50;41.00;;;;;;4991558;28;20439;-68
2021/04/09 01:39:07;;;;;;;1.60;1.42;;;20.50;40.90;;;;;;5008107;28;20430;-72
2021/04/09 01:41:34;;;;;;;1.70;1.60;;;20.50;40.70;;;;;;4997302;28;20464;-69
2021/04/09 01:44:01;;;;;;;1.50;1.40;;;20.50;40.70;;;;;;4997743;28;20974;-68
2021/04/09 01:46:27;;;;;;;1.30;1.20;;;20.50;40.70;;;;;;4993923;28;20970;-73
2021/04/09 01:48:54;;;;;;;1.50;1.40;;;20.50;40.80;;;;;;4993494;28;20641;-69
2021/04/09 01:51:20;;;;;;;1.60;1.50;;;20.50;40.70;;;;;;5001807;28;20422;-71
2021/04/09 01:53:47;;;;;;;1.30;1.20;;;20.40;40.70;;;;;;5005310;28;20422;-68
2021/04/09 01:56:14;;;;;;;2.83;1.60;;;20.40;40.60;;;;;;5010267;28;20534;-67
2021/04/09 01:58:40;;;;;;;1.73;1.63;;;20.40;40.60;;;;;;5000920;28;20477;-68
2021/04/09 02:01:07;;;;;;;2.70;1.92;;;20.40;40.70;;;;;;5008300;28;20423;-68
2021/04/09 02:03:34;;;;;;;1.42;1.33;;;20.40;40.60;;;;;;5002160;28;20417;-68
2021/04/09 02:06:01;;;;;;;1.33;1.30;;;20.40;40.70;;;;;;5006225;28;20433;-68
2021/04/09 02:08:27;;;;;;;2.83;1.60;;;20.40;40.80;;;;;;5006058;28;21140;-70
2021/04/09 02:10:55;;;;;;;1.63;1.52;;;20.40;40.60;;;;;;5007666;28;20420;-72
2021/04/09 02:13:21;;;;;;;1.40;1.30;;;20.40;40.70;;;;;;5002181;28;20446;-70
2021/04/09 02:15:47;;;;;;;2.70;1.40;;;20.40;40.80;;;;;;5009138;28;20411;-72
2021/04/09 02:18:13;;;;;;;1.60;1.40;;;20.40;41.00;;;;;;4988911;28;20431;-71
2021/04/09 02:20:40;;;;;;;1.48;1.38;;;20.40;40.80;;;;;;5000974;28;20419;-71
2021/04/09 02:23:07;;;;;;;2.67;1.50;;;20.40;40.80;;;;;;4971125;28;20431;-71
2021/04/09 02:25:33;;;;;;;1.35;1.25;;;20.40;40.80;;;;;;5003114;28;20448;-72
2021/04/09 02:27:59;;;;;;;1.70;1.60;;;20.40;40.80;;;;;;5002382;28;20431;-69
2021/04/09 02:30:25;;;;;;;1.60;1.50;;;20.40;40.90;;;;;;5005795;28;20423;-70
2021/04/09 02:32:51;;;;;;;1.80;1.40;;;20.40;40.70;;;;;;5002978;28;20399;-69
2021/04/09 02:35:18;;;;;;;1.50;1.40;;;20.40;40.80;;;;;;4997576;28;20484;-71
2021/04/09 02:37:44;;;;;;;1.30;1.20;;;20.40;40.70;;;;;;5001665;28;20762;-70
2021/04/09 02:40:14;;;;;;;1.90;1.42;;;20.40;40.50;;;;;;5006433;28;20417;-69
2021/04/09 02:42:40;;;;;;;1.50;1.40;;;20.40;40.40;;;;;;4992487;28;20416;-70
2021/04/09 02:45:08;;;;;;;1.45;1.35;;;20.40;40.40;;;;;;5005886;28;20405;-70
2021/04/09 02:47:34;;;;;;;1.60;1.50;;;20.40;40.60;;;;;;5008089;28;20428;-70
2021/04/09 02:50:01;;;;;;;2.20;1.50;;;20.40;40.60;;;;;;5009348;28;20417;-70
2021/04/09 02:52:29;;;;;;;2.97;1.63;;;20.40;40.70;;;;;;5009379;28;20411;-68
2021/04/09 02:54:56;;;;;;;2.50;1.77;;;20.40;40.70;;;;;;5007535;28;20436;-71
2021/04/09 02:57:24;;;;;;;1.60;1.40;;;20.40;40.70;;;;;;5006553;28;20422;-72
2021/04/09 02:59:50;;;;;;;1.30;1.20;;;20.40;40.80;;;;;;5009355;28;20450;-68
2021/04/09 03:02:16;;;;;;;1.70;1.60;;;20.40;40.90;;;;;;5003939;28;20456;-68
2021/04/09 03:04:42;;;;;;;1.40;1.30;;;20.40;40.90;;;;;;5006886;28;20422;-68
2021/04/09 03:07:08;;;;;;;1.47;1.37;;;20.50;40.60;;;;;;5007518;28;20430;-69
2021/04/09 03:09:35;;;;;;;2.13;1.60;;;20.50;40.50;;;;;;5009083;28;20519;-70
2021/04/09 03:12:01;;;;;;;1.70;1.60;;;20.50;39.90;;;;;;5007451;28;21422;-69
2021/04/09 03:14:28;;;;;;;1.58;1.48;;;20.50;40.00;;;;;;5008045;28;20415;-69
2021/04/09 03:16:57;;;;;;;1.80;1.40;;;20.60;40.00;;;;;;5008658;28;20418;-69
2021/04/09 03:19:24;;;;;;;1.33;1.30;;;20.60;39.70;;;;;;5004225;28;20409;-70
2021/04/09 03:21:50;;;;;;;1.70;1.48;;;20.70;39.40;;;;;;5008017;28;20460;-69
2021/04/09 03:24:16;;;;;;;1.90;1.70;;;20.70;39.30;;;;;;5010129;28;20417;-72
2021/04/09 03:26:42;;;;;;;2.20;1.55;;;20.70;39.00;;;;;;5014511;28;20412;-72
2021/04/09 03:29:08;;;;;;;1.73;1.58;;;20.70;39.50;;;;;;5007733;28;20425;-71
2021/04/09 03:31:35;;;;;;;1.92;1.70;;;20.70;39.30;;;;;;5006142;28;20888;-70
2021/04/09 03:34:02;;;;;;;1.80;1.70;;;20.70;39.30;;;;;;5011474;28;20926;-69
2021/04/09 03:36:28;;;;;;;1.67;1.58;;;20.70;39.10;;;;;;5005934;28;20433;-70
2021/04/09 03:38:54;;;;;;;1.60;1.50;;;20.80;39.20;;;;;;4987669;28;20421;-70
2021/04/09 03:41:20;;;;;;;1.50;1.40;;;20.80;39.00;;;;;;5016940;28;20407;-68
2021/04/09 03:43:46;;;;;;;1.50;1.40;;;20.80;39.00;;;;;;5008127;28;20411;-68
2021/04/09 03:46:13;;;;;;;1.88;1.50;;;20.80;38.90;;;;;;5008090;28;20498;-68
2021/04/09 03:48:40;;;;;;;1.60;1.48;;;20.80;39.10;;;;;;5007554;28;20424;-70
2021/04/09 03:51:06;;;;;;;1.93;1.70;;;20.80;39.10;;;;;;5007009;28;20463;-71
2021/04/09 03:53:32;;;;;;;2.00;1.50;;;20.80;39.20;;;;;;5007470;28;20412;-72
2021/04/09 03:55:58;;;;;;;1.60;1.50;;;20.80;39.30;;;;;;5006994;28;20421;-71
2021/04/09 03:58:24;;;;;;;2.03;1.77;;;20.80;39.30;;;;;;4995333;28;21449;-71
2021/04/09 04:00:50;;;;;;;2.08;1.83;;;20.70;39.30;;;;;;5011931;28;20417;-68
2021/04/09 04:03:16;;;;;;;2.00;1.60;;;20.70;39.60;;;;;;5013742;28;20423;-69
2021/04/09 04:05:43;;;;;;;1.80;1.70;;;20.70;39.60;;;;;;5005899;28;20412;-68
2021/04/09 04:08:09;;;;;;;1.80;1.70;;;20.70;39.70;;;;;;5012935;28;20954;-69
2021/04/09 04:10:36;;;;;;;3.30;1.50;;;20.70;40.00;;;;;;5007001;28;20881;-69
2021/04/09 04:13:02;;;;;;;1.65;1.40;;;20.70;39.50;;;;;;5006963;28;20428;-68
2021/04/09 04:15:28;;;;;;;3.10;1.90;;;20.70;39.30;;;;;;4989053;28;21133;-71
2021/04/09 04:17:54;;;;;;;1.85;1.70;;;20.80;39.40;;;;;;5011272;28;20498;-69
2021/04/09 04:20:20;;;;;;;2.58;2.05;;;20.80;39.30;;;;;;5009941;28;20801;-69
2021/04/09 04:22:47;;;;;;;1.88;1.70;;;20.80;39.20;;;;;;5007510;28;20929;-69
2021/04/09 04:25:13;;;;;;;1.85;1.30;;;20.80;38.90;;;;;;5007157;28;20444;-69
2021/04/09 04:27:39;;;;;;;1.80;1.60;;;20.80;38.70;;;;;;5007931;28;20460;-68
2021/04/09 04:30:06;;;;;;;1.80;1.60;;;20.80;38.60;;;;;;5003248;28;20424;-68
2021/04/09 04:32:33;;;;;;;1.63;1.52;;;20.80;38.60;;;;;;5004113;28;20440;-72
2021/04/09 04:34:59;;;;;;;1.80;1.50;;;20.80;38.60;;;;;;4998450;28;20480;-71
2021/04/09 04:37:25;;;;;;;3.10;1.90;;;20.80;38.60;;;;;;5006857;28;20477;-71
2021/04/09 04:39:52;;;;;;;1.90;1.80;;;20.80;38.50;;;;;;5001180;28;20500;-72
2021/04/09 04:42:18;;;;;;;1.88;1.77;;;20.80;38.60;;;;;;5004933;28;20411;-69
2021/04/09 04:44:44;;;;;;;1.70;1.48;;;20.80;38.60;;;;;;5006646;28;20413;-68
2021/04/09 04:47:10;;;;;;;2.10;1.98;;;20.80;38.60;;;;;;5006483;28;20420;-71
2021/04/09 04:49:36;;;;;;;1.70;1.60;;;20.80;38.60;;;;;;5006732;28;20486;-68
2021/04/09 04:52:03;;;;;;;2.70;2.00;;;20.80;38.60;;;;;;5005013;28;20421;-69
2021/04/09 04:54:29;;;;;;;1.63;1.50;;;20.80;38.60;;;;;;5006955;28;20418;-69
2021/04/09 04:56:56;;;;;;;1.60;1.50;;;20.80;38.50;;;;;;5003317;28;20557;-70
2021/04/09 04:59:22;;;;;;;2.08;1.60;;;20.80;38.60;;;;;;5009791;28;20398;-70
2021/04/09 05:01:48;;;;;;;2.15;1.80;;;20.80;38.60;;;;;;5001204;28;20412;-68
2021/04/09 05:04:14;;;;;;;2.83;1.60;;;20.80;38.60;;;;;;5003456;28;20420;-68
2021/04/09 05:06:40;;;;;;;2.30;1.73;;;20.80;38.60;;;;;;4997706;28;20472;-69
2021/04/09 05:09:06;;;;;;;1.75;1.60;;;20.80;38.50;;;;;;5016888;28;20424;-67
2021/04/09 05:11:33;;;;;;;1.85;1.60;;;20.90;38.70;;;;;;5004599;28;20408;-68
2021/04/09 05:14:00;;;;;;;2.70;1.65;;;20.90;38.70;;;;;;5006497;28;20415;-68
2021/04/09 05:16:26;;;;;;;2.03;1.83;;;20.90;38.70;;;;;;5002904;28;20423;-72
2021/04/09 05:18:52;;;;;;;1.88;1.60;;;20.90;38.70;;;;;;4996604;28;20426;-70
2021/04/09 05:21:18;;;;;;;2.67;1.70;;;20.90;38.70;;;;;;5019373;28;20415;-72
2021/04/09 05:23:44;;;;;;;1.90;1.80;;;20.80;38.60;;;;;;4998278;28;20416;-70
2021/04/09 05:26:10;;;;;;;1.60;1.20;;;20.90;38.60;;;;;;5016982;28;20421;-71
2021/04/09 05:28:36;;;;;;;1.80;1.70;;;20.90;38.70;;;;;;5004330;28;20417;-72
2021/04/09 05:31:03;;;;;;;1.70;1.60;;;20.90;38.70;;;;;;5005717;28;20506;-73
2021/04/09 05:33:29;;;;;;;2.22;1.50;;;20.90;38.60;;;;;;5008376;28;20447;-69
2021/04/09 05:35:56;;;;;;;1.80;1.70;;;20.90;38.60;;;;;;4992419;28;20422;-70
2021/04/09 05:38:22;;;;;;;2.05;1.95;;;20.90;38.70;;;;;;5017056;28;20415;-69
2021/04/09 05:40:48;;;;;;;3.30;2.20;;;20.90;38.70;;;;;;5005197;28;20407;-71
2021/04/09 05:43:14;;;;;;;1.83;1.63;;;20.90;38.60;;;;;;5005794;28;20420;-71
2021/04/09 05:45:40;;;;;;;2.20;2.00;;;20.90;38.70;;;;;;5006700;28;20409;-72
2021/04/09 05:48:08;;;;;;;2.13;1.40;;;20.80;38.50;;;;;;5005958;28;20408;-70
2021/04/09 05:50:35;;;;;;;2.10;1.90;;;20.80;38.50;;;;;;5003703;28;20972;-71
2021/04/09 05:53:02;;;;;;;2.83;1.80;;;20.80;38.50;;;;;;5005073;28;20415;-69
2021/04/09 05:55:28;;;;;;;2.10;1.90;;;20.80;38.60;;;;;;5006735;28;20453;-71
2021/04/09 05:57:54;;;;;;;2.00;1.60;;;20.80;38.60;;;;;;5002166;28;20415;-69
2021/04/09 06:00:21;;;;;;;1.70;1.60;;;20.80;38.60;;;;;;5006785;28;20427;-71
2021/04/09 06:02:47;;;;;;;1.80;1.70;;;20.80;38.60;;;;;;5005731;28;20427;-70
2021/04/09 06:05:15;;;;;;;1.85;1.75;;;20.80;38.60;;;;;;4990106;28;21048;-69
2021/04/09 06:07:41;;;;;;;2.50;2.13;;;20.90;38.60;;;;;;5015848;28;21012;-72
2021/04/09 06:10:08;;;;;;;2.40;1.70;;;20.90;38.70;;;;;;4962333;28;20426;-71
2021/04/09 06:12:36;;;;;;;4.87;2.10;;;20.90;38.60;;;;;;4972527;28;20417;-68
2021/04/09 06:15:06;;;;;;;1.80;1.70;;;20.90;38.60;;;;;;5000440;28;20417;-68
2021/04/09 06:17:32;;;;;;;2.65;2.00;;;20.90;38.60;;;;;;5005935;28;20430;-71
2021/04/09 06:19:58;;;;;;;2.10;2.00;;;20.90;38.70;;;;;;4981047;28;20773;-73
2021/04/09 06:22:25;;;;;;;2.10;1.83;;;20.90;38.70;;;;;;5007279;28;20419;-73
2021/04/09 06:24:52;;;;;;;1.77;1.67;;;20.80;38.60;;;;;;5000182;28;20419;-68
2021/04/09 06:27:18;;;;;;;2.03;1.70;;;20.80;38.60;;;;;;5011689;28;20454;-68
2021/04/09 06:29:44;;;;;;;1.85;1.75;;;20.80;38.60;;;;;;5007331;28;21302;-68
2021/04/09 06:32:10;;;;;;;2.35;1.70;;;20.80;38.60;;;;;;4983680;28;20487;-67
2021/04/09 06:34:36;;;;;;;2.42;1.60;;;20.80;38.60;;;;;;4986199;28;20413;-69
2021/04/09 06:37:02;;;;;;;1.50;1.40;;;20.80;38.60;;;;;;5008819;28;20417;-68
2021/04/09 06:39:29;;;;;;;2.10;1.73;;;20.70;38.50;;;;;;5012038;28;20460;-68
2021/04/09 06:41:56;;;;;;;1.30;1.30;;;20.80;38.60;;;;;;4995357;28;20414;-70
2021/04/09 06:44:22;;;;;;;1.98;1.70;;;20.80;38.80;;;;;;4994540;28;20416;-71
2021/04/09 06:46:48;;;;;;;1.90;1.70;;;20.80;38.80;;;;;;4999283;28;20491;-72
2021/04/09 06:49:14;;;;;;;2.30;2.00;;;20.80;38.60;;;;;;4996287;28;20419;-70
2021/04/09 06:51:43;;;;;;;2.55;1.73;;;20.80;38.60;;;;;;5012598;28;20983;-70
2021/04/09 06:54:11;;;;;;;2.10;1.90;;;20.80;38.60;;;;;;4993430;28;20424;-68
2021/04/09 06:56:38;;;;;;;2.85;1.85;;;20.80;38.60;;;;;;5010904;28;20419;-69
2021/04/09 06:59:04;;;;;;;2.05;1.90;;;20.80;38.60;;;;;;5010080;28;20893;-69
2021/04/09 07:01:30;;;;;;;1.90;1.70;;;20.80;38.60;;;;;;4998782;28;20445;-68
2021/04/09 07:03:56;;;;;;;2.10;1.60;;;20.80;38.60;;;;;;5003978;28;20424;-70
2021/04/09 07:06:23;;;;;;;2.83;1.50;;;20.70;38.60;;;;;;5012303;28;20414;-69
2021/04/09 07:08:49;;;;;;;1.70;1.60;;;20.80;39.10;;;;;;5010708;28;20480;-68
2021/04/09 07:11:15;;;;;;;2.30;2.10;;;20.80;38.60;;;;;;5010134;28;20515;-68
2021/04/09 07:13:48;;;;;;;2.60;1.90;;;20.80;38.80;;;;;;5002197;28;20444;-69
2021/04/09 07:16:14;;;;;;;1.50;1.40;;;20.80;38.70;;;;;;5018525;28;20420;-69
2021/04/09 07:18:47;;;;;;;3.20;1.90;;;20.80;38.70;;;;;;5008854;28;20423;-69
2021/04/09 07:21:23;;;;;;;3.00;1.60;;;20.80;38.90;;;;;;4989038;28;20423;-68
2021/04/09 07:23:50;;;;;;;2.67;1.80;;;20.80;39.10;;;;;;5016939;28;20427;-70
2021/04/09 07:26:41;;;;;;;2.33;2.00;;;20.80;39.10;;;;;;4989589;28;20457;-72
2021/04/09 07:29:08;;;;;;;2.63;1.90;;;20.70;39.00;;;;;;4990248;28;20420;-69
2021/04/09 07:31:35;;;;;;;2.15;1.95;;;20.70;39.20;;;;;;5007496;28;20413;-68
2021/04/09 07:34:01;;;;;;;2.00;1.80;;;20.70;39.10;;;;;;5004520;28;20407;-70
2021/04/09 07:36:27;;;;;;;3.50;2.03;;;20.70;39.00;;;;;;5013989;28;20426;-68
2021/04/09 07:38:53;;;;;;;2.30;1.70;;;20.70;39.20;;;;;;5004472;28;20411;-70
2021/04/09 07:41:19;;;;;;;1.70;1.50;;;20.70;39.10;;;;;;5007394;28;20415;-68
2021/04/09 07:43:46;;;;;;;2.80;1.77;;;20.70;39.10;;;;;;5003785;28;20425;-71
2021/04/09 07:46:21;;;;;;;3.03;2.10;;;20.60;38.90;;;;;;5014209;28;20417;-71
2021/04/09 07:48:49;;;;;;;1.52;1.42;;;20.60;39.20;;;;;;5007893;28;20420;-67
2021/04/09 07:51:17;;;;;;;2.10;1.80;;;20.60;38.90;;;;;;5008320;28;20439;-69
2021/04/09 07:53:45;;;;;;;2.10;2.00;;;20.60;39.00;;;;;;5007159;28;20428;-70
2021/04/09 07:56:12;;;;;;;2.00;1.80;;;20.60;39.10;;;;;;5008578;28;20776;-68
2021/04/09 07:58:39;;;;;;;2.90;1.75;;;20.60;39.30;;;;;;4990712;28;20802;-72
2021/04/09 08:01:06;;;;;;;3.08;1.92;;;20.60;39.60;;;;;;5007522;28;20424;-70
2021/04/09 08:03:35;;;;;;;2.40;1.70;;;20.60;39.50;;;;;;5003935;28;20470;-68
2021/04/09 08:06:05;;;;;;;3.53;1.80;;;20.60;39.60;;;;;;5007711;28;21801;-69
2021/04/09 08:08:31;;;;;;;2.55;1.83;;;20.70;39.60;;;;;;5006479;28;20422;-71
2021/04/09 08:11:19;;;;;;;2.30;1.50;;;20.70;39.60;;;;;;5005700;28;20948;-70
2021/04/09 08:13:45;;;;;;;4.70;1.50;;;20.70;39.40;;;;;;5006921;28;20428;-70
2021/04/09 08:16:27;;;;;;;1.70;1.60;;;20.70;39.40;;;;;;5006764;28;20420;-67
2021/04/09 08:18:58;;;;;;;2.72;2.15;;;20.70;39.60;;;;;;5003667;28;20500;-70
2021/04/09 08:21:26;;;;;;;3.50;1.50;;;20.60;39.70;;;;;;5008093;28;20436;-70
2021/04/09 08:23:52;;;;;;;2.08;1.88;;;20.60;39.60;;;;;;4997722;28;20411;-72
2021/04/09 08:26:18;;;;;;;2.20;2.00;;;20.60;39.60;;;;;;5002273;28;20981;-69
2021/04/09 08:28:44;;;;;;;2.70;1.40;;;20.60;39.40;;;;;;5007207;28;25234;-68
2021/04/09 08:31:10;;;;;;;2.30;2.00;;;20.60;39.30;;;;;;5007405;28;20421;-68
2021/04/09 08:33:36;;;;;;;2.30;1.80;;;20.60;39.30;;;;;;5006433;28;20432;-71
2021/04/09 08:36:04;;;;;;;2.67;2.00;;;20.60;39.20;;;;;;5005725;28;21092;-68
2021/04/09 08:38:31;;;;;;;2.63;1.90;;;20.60;39.40;;;;;;5003051;28;20415;-70
2021/04/09 08:40:57;;;;;;;3.95;2.20;;;20.60;39.40;;;;;;5004123;28;20440;-69
2021/04/09 08:43:23;;;;;;;2.30;2.10;;;20.60;39.40;;;;;;5006000;28;20426;-69
2021/04/09 08:45:49;;;;;;;3.10;2.00;;;20.60;39.50;;;;;;5005573;28;20430;-67
2021/04/09 08:48:16;;;;;;;2.80;2.60;;;20.50;39.50;;;;;;5004892;28;20475;-69
2021/04/09 08:50:43;;;;;;;2.15;2.05;;;20.50;39.60;;;;;;5001073;28;20427;-72
2021/04/09 08:53:10;;;;;;;1.77;1.67;;;20.50;39.60;;;;;;5003470;28;20435;-70
2021/04/09 08:55:37;;;;;;;2.10;1.90;;;20.50;39.70;;;;;;5005122;28;20917;-69
2021/04/09 08:58:13;;;;;;;2.42;2.10;;;20.50;39.80;;;;;;4979528;28;20409;-71
2021/04/09 09:00:40;;;;;;;1.70;1.60;;;20.50;39.80;;;;;;4992017;28;20415;-68
2021/04/09 09:03:06;;;;;;;2.65;2.25;;;20.60;39.70;;;;;;5013871;28;20405;-70
2021/04/09 09:05:34;;;;;;;3.05;2.00;;;20.60;39.70;;;;;;4993267;28;20413;-70
2021/04/09 09:08:00;;;;;;;2.15;1.80;;;20.60;39.60;;;;;;5004183;28;20410;-72
2021/04/09 09:10:57;;;;;;;1.70;1.60;;;20.60;39.50;;;;;;5010778;28;20461;-70
2021/04/09 09:13:33;;;;;;;3.13;1.90;;;20.60;39.50;;;;;;4993051;28;20437;-71
2021/04/09 09:16:13;;;;;;;1.77;1.67;;;20.70;39.80;;;;;;5004468;28;20421;-69
2021/04/09 09:18:53;;;;;;;2.20;1.77;;;20.70;39.60;;;;;;4997327;28;20408;-72
2021/04/09 09:21:37;;;;;;;1.70;1.60;;;20.70;39.60;;;;;;4993414;28;20417;-70
2021/04/09 09:24:04;;;;;;;1.90;1.80;;;20.70;39.60;;;;;;4993925;28;20418;-69
2021/04/09 09:26:33;;;;;;;2.20;1.83;;;20.70;40.50;;;;;;5003395;28;20426;-72
2021/04/09 09:29:10;;;;;;;1.90;1.80;;;20.70;39.80;;;;;;5005327;28;20415;-71
2021/04/09 09:31:37;;;;;;;3.22;2.08;;;20.60;40.00;;;;;;5003093;28;20451;-69
2021/04/09 09:34:33;;;;;;;2.70;1.90;;;20.60;39.80;;;;;;5002625;28;20866;-72
2021/04/09 09:36:59;;;;;;;2.55;1.80;;;20.60;39.70;;;;;;5004405;28;20414;-71
2021/04/09 09:39:35;;;;;;;1.70;1.60;;;20.60;39.80;;;;;;5004081;28;20431;-69
2021/04/09 09:42:03;;;;;;;2.15;1.95;;;20.60;40.00;;;;;;5001959;28;20411;-72
2021/04/09 09:44:36;;;;;;;2.60;1.70;;;20.60;39.80;;;;;;5004611;28;20415;-71
2021/04/09 09:47:04;;;;;;;2.58;1.90;;;20.70;39.80;;;;;;5006510;28;20407;-70
2021/04/09 09:49:34;;;;;;;1.80;1.70;;;20.70;39.70;;;;;;5005033;28;20427;-72
2021/04/09 09:52:00;;;;;;;1.80;1.50;;;20.70;39.80;;;;;;5006016;28;20412;-70
2021/04/09 09:54:28;;;;;;;2.00;1.90;;;20.70;39.70;;;;;;5004947;28;20422;-70
2021/04/09 09:56:54;;;;;;;1.90;1.80;;;20.70;39.70;;;;;;5007429;28;20532;-70
2021/04/09 09:59:22;;;;;;;2.85;1.65;;;20.70;39.80;;;;;;5008308;28;20418;-71
2021/04/09 10:01:58;;;;;;;2.35;1.80;;;20.70;39.70;;;;;;5006048;28;20457;-71
2021/04/09 10:04:25;;;;;;;1.50;1.30;;;20.70;39.80;;;;;;5041534;28;20433;-72
2021/04/09 10:06:54;;;;;;;3.58;1.42;;;20.70;39.80;;;;;;5032548;28;20407;-72
2021/04/09 10:09:24;;;;;;;1.67;1.58;;;20.70;39.80;;;;;;5024451;28;20424;-69
2021/04/09 10:11:50;;;;;;;1.40;1.30;;;20.70;39.90;;;;;;4998803;28;20420;-69
2021/04/09 10:14:17;;;;;;;2.30;1.60;;;20.60;40.00;;;;;;5004019;28;20423;-69
2021/04/09 10:16:44;;;;;;;3.45;1.90;;;20.60;40.10;;;;;;5007777;28;20419;-69
2021/04/09 10:19:10;;;;;;;2.80;1.70;;;20.60;40.10;;;;;;5009251;28;20473;-69
2021/04/09 10:21:39;;;;;;;1.90;1.80;;;20.60;40.10;;;;;;4992801;28;20423;-68
2021/04/09 10:24:06;;;;;;;2.33;1.80;;;20.60;40.00;;;;;;5010093;28;20408;-71
2021/04/09 10:26:32;;;;;;;1.75;1.65;;;20.60;40.00;;;;;;5007040;28;20426;-69
2021/04/09 10:28:58;;;;;;;1.75;1.40;;;20.60;40.20;;;;;;5000833;28;20422;-70
2021/04/09 10:31:24;;;;;;;2.58;1.80;;;20.60;40.20;;;;;;4999199;28;20403;-68
2021/04/09 10:33:52;;;;;;;1.98;1.80;;;20.60;40.10;;;;;;4997889;28;21163;-70
2021/04/09 10:36:20;;;;;;;1.50;1.40;;;20.70;40.20;;;;;;4991997;28;20470;-70
2021/04/09 10:38:47;;;;;;;2.40;1.70;;;20.60;40.20;;;;;;5010965;28;21532;-69
2021/04/09 10:41:24;;;;;;;2.20;1.50;;;20.60;41.00;;;;;;4999461;28;20413;-69
2021/04/09 10:43:53;;;;;;;1.52;1.42;;;20.60;40.20;;;;;;5008797;28;20418;-72
2021/04/09 10:46:19;;;;;;;3.53;2.00;;;20.60;40.20;;;;;;4990511;28;20438;-69
2021/04/09 10:48:46;;;;;;;2.60;1.70;;;20.60;41.00;;;;;;5020495;28;20421;-68
2021/04/09 10:51:13;;;;;;;1.63;1.52;;;20.60;40.30;;;;;;5006712;28;20415;-69
2021/04/09 10:53:39;;;;;;;1.70;1.60;;;20.60;40.30;;;;;;5013663;28;20439;-69
2021/04/09 10:56:07;;;;;;;2.20;1.50;;;20.60;40.30;;;;;;5009966;28;20943;-70
2021/04/09 10:58:33;;;;;;;1.63;1.50;;;20.60;40.20;;;;;;5010649;28;20526;-71
2021/04/09 11:00:59;;;;;;;1.88;1.67;;;20.60;40.20;;;;;;5008222;28;20922;-71
2021/04/09 11:03:25;;;;;;;2.17;1.90;;;20.60;40.20;;;;;;5009212;28;20419;-72
2021/04/09 11:05:51;;;;;;;2.67;1.70;;;20.60;40.30;;;;;;5001209;28;20417;-71
2021/04/09 11:08:34;;;;;;;2.22;1.40;;;20.60;40.20;;;;;;5020694;28;21117;-70
2021/04/09 11:11:02;;;;;;;1.60;1.50;;;20.60;41.10;;;;;;4998342;28;20413;-71
2021/04/09 11:13:32;;;;;;;2.13;1.55;;;20.50;40.30;;;;;;5017828;28;20411;-72
2021/04/09 11:15:59;;;;;;;2.17;1.50;;;20.50;40.30;;;;;;5018421;28;20397;-74
2021/04/09 11:18:49;;;;;;;2.90;1.80;;;20.50;40.30;;;;;;5031383;28;20412;-70
2021/04/09 11:21:15;;;;;;;1.60;1.50;;;20.60;40.40;;;;;;4990772;28;20443;-69
2021/04/09 11:23:42;;;;;;;1.40;1.30;;;20.60;40.30;;;;;;4993259;28;20425;-69
2021/04/09 11:26:18;;;;;;;1.40;1.30;;;20.60;40.30;;;;;;5001199;28;20417;-70
2021/04/09 11:28:50;;;;;;;1.70;1.60;;;20.60;40.30;;;;;;4980556;28;20416;-69
2021/04/09 11:31:21;;;;;;;2.00;1.80;;;20.60;40.30;;;;;;4990199;28;20450;-69
2021/04/09 11:33:47;;;;;;;2.40;1.40;;;20.60;40.30;;;;;;5000339;28;21143;-68
2021/04/09 11:36:14;;;;;;;1.75;1.52;;;20.60;40.30;;;;;;4987241;28;20426;-70
2021/04/09 11:38:40;;;;;;;2.13;1.25;;;20.60;40.30;;;;;;4994223;28;20432;-69
2021/04/09 11:41:25;;;;;;;1.47;1.20;;;20.60;40.50;;;;;;4998187;28;20413;-69
2021/04/09 11:43:51;;;;;;;1.55;1.45;;;20.50;40.30;;;;;;5009944;28;20433;-69
2021/04/09 11:46:31;;;;;;;1.50;1.40;;;20.60;40.40;;;;;;5008015;28;20412;-72
2021/04/09 11:48:59;;;;;;;1.60;1.48;;;20.60;40.30;;;;;;5005405;28;21451;-70
2021/04/09 11:51:25;;;;;;;3.00;1.42;;;20.50;40.20;;;;;;4996623;28;20591;-69
2021/04/09 11:54:00;;;;;;;1.40;1.30;;;20.60;40.30;;;;;;4997063;28;20403;-70
2021/04/09 11:56:40;;;;;;;2.38;1.40;;;20.60;40.20;;;;;;5000142;28;20443;-71
2021/04/09 11:59:10;;;;;;;1.40;1.30;;;20.60;40.10;;;;;;5006748;28;20418;-70
2021/04/09 12:01:37;;;;;;;1.20;1.10;;;20.70;40.20;;;;;;5009197;28;20947;-68
2021/04/09 12:04:03;;;;;;;2.90;1.27;;;20.70;40.20;;;;;;5003272;28;20415;-72
2021/04/09 12:06:35;;;;;;;1.55;1.30;;;20.70;40.10;;;;;;5007222;28;20430;-70
2021/04/09 12:09:01;;;;;;;2.00;1.40;;;20.70;40.00;;;;;;5007050;28;20554;-68
2021/04/09 12:11:27;;;;;;;2.30;1.17;;;20.70;40.00;;;;;;5007411;28;21061;-68
2021/04/09 12:13:54;;;;;;;2.03;1.50;;;20.70;40.10;;;;;;5013167;28;20433;-70
2021/04/09 12:16:20;;;;;;;2.00;1.27;;;20.80;40.10;;;;;;5005175;28;20950;-70
2021/04/09 12:18:47;;;;;;;1.38;1.20;;;20.80;40.00;;;;;;5006195;28;20410;-70
2021/04/09 12:21:13;;;;;;;2.10;1.30;;;20.80;40.00;;;;;;4987743;28;20818;-71
2021/04/09 12:23:39;;;;;;;1.40;1.23;;;20.80;40.00;;;;;;5029903;28;20525;-72
2021/04/09 12:26:05;;;;;;;1.58;1.30;;;20.80;39.80;;;;;;5021348;28;20467;-70
2021/04/09 12:28:31;;;;;;;1.20;1.10;;;20.80;39.70;;;;;;5012446;28;20417;-70
2021/04/09 12:30:58;;;;;;;1.50;1.40;;;20.90;39.90;;;;;;5007728;28;20765;-71
2021/04/09 12:33:24;;;;;;;1.60;1.50;;;20.90;39.80;;;;;;5003862;28;20407;-69
2021/04/09 12:35:51;;;;;;;1.98;1.30;;;20.80;39.80;;;;;;5008094;28;20423;-69
2021/04/09 12:38:17;;;;;;;2.00;1.30;;;20.80;39.80;;;;;;5007377;28;20999;-71
2021/04/09 12:40:43;;;;;;;1.50;1.40;;;20.80;39.90;;;;;;5006231;28;20417;-69
2021/04/09 12:43:09;;;;;;;1.40;1.30;;;20.80;39.90;;;;;;5007204;28;20420;-71
2021/04/09 12:45:35;;;;;;;1.88;1.25;;;20.70;40.00;;;;;;4998038;28;20534;-70
2021/04/09 12:48:02;;;;;;;1.27;1.20;;;20.70;40.10;;;;;;5004289;28;20490;-68
2021/04/09 12:50:28;;;;;;;1.50;1.40;;;20.70;40.10;;;;;;5004622;28;20415;-72
2021/04/09 12:52:55;;;;;;;1.50;1.10;;;20.70;40.20;;;;;;5004422;28;20399;-71